Archbold, Ohio
Current Conditions -  °F | °C
As of 4:15 AM on Thursday 23 Oct 2014 (Local Time) from KUSE Reporting Station
Moderate Fog Moderate Fog  
Wind Chill: 34°   Ceiling: 200
Heat Index: 34°   Visibility: 0.25mi
Dew Point: 34°   Wind: 3mph
Humidity: 100%   Direction: 320°NW
Pressure: 30.27"   Gusts: NA
Location:  41.52°N, 84.31°W
Report Text: KUSE 230815Z AUTO 32003KT 1/4SM FG VV002 01/01 A3027 RMK AO2
Loading
Personal Weather Stations






























Interactive Weather Map
Tropical Storm Tracking
New forecast layout! Learn more

10-Day Weather Forecast

Advertisements
Track Severe Weather on mobile